Time;durP1;ratioP1;P1;durP2;ratioP2;P2;SDS_P1;SDS_P2;PMS_P1;PMS_P2;Temp;Humidity;BMP_temperature;BMP_pressure;BME280_temperature;BME280_humidity;BME280_pressure;Samples;Min_cycle;Max_cycle;Signal;HPM_P1;HPM_P2
2023/09/16 00:00:08;;;;;;;1.58;0.60;;;;;;;21.12;52.54;99951.66;4468302;32;33985;-78
2023/09/16 00:02:40;;;;;;;1.45;0.60;;;;;;;21.01;52.77;99952.25;4465048;32;33451;-79
2023/09/16 00:05:09;;;;;;;1.02;0.60;;;;;;;20.75;53.30;99956.22;4473663;32;33128;-79
2023/09/16 00:07:38;;;;;;;1.40;0.70;;;;;;;20.67;53.43;99948.72;4461934;32;34108;-79
2023/09/16 00:10:07;;;;;;;2.47;0.85;;;;;;;20.77;53.12;99964.91;4464325;32;33487;-80
2023/09/16 00:12:36;;;;;;;3.00;0.85;;;;;;;20.72;53.21;99959.88;4459972;32;34399;-78
2023/09/16 00:15:06;;;;;;;1.42;0.65;;;;;;;20.80;52.99;99959.47;4456968;32;33624;-79
2023/09/16 00:17:35;;;;;;;1.08;0.60;;;;;;;20.82;52.98;99966.38;4463432;32;35470;-79
2023/09/16 00:20:15;;;;;;;1.05;0.70;;;;;;;20.76;52.94;99961.44;4466822;32;33482;-78
2023/09/16 00:22:45;;;;;;;0.50;0.50;;;;;;;20.78;53.01;99962.22;4469014;32;33755;-79
2023/09/16 00:25:15;;;;;;;1.67;0.85;;;;;;;20.67;53.16;99961.91;4464300;32;34575;-79
2023/09/16 00:27:44;;;;;;;0.60;0.60;;;;;;;20.55;53.53;99971.25;4467559;32;34241;-78
2023/09/16 00:30:14;;;;;;;1.92;0.70;;;;;;;20.65;53.21;99963.75;4459792;32;33702;-78
2023/09/16 00:32:43;;;;;;;1.65;1.12;;;;;;;20.64;53.88;99969.97;4475417;32;34119;-79
2023/09/16 00:35:13;;;;;;;1.83;0.77;;;;;;;20.52;54.38;99971.41;4472627;32;33633;-78
2023/09/16 00:37:43;;;;;;;0.88;0.70;;;;;;;20.54;54.36;99969.53;4475689;32;34127;-78
2023/09/16 00:40:12;;;;;;;2.05;0.88;;;;;;;20.70;54.02;99969.63;4477620;32;33357;-79
2023/09/16 00:42:41;;;;;;;0.62;0.47;;;;;;;20.78;53.44;99963.97;4481098;32;35700;-79
2023/09/16 00:45:10;;;;;;;1.52;0.77;;;;;;;20.73;54.10;99972.16;4474648;32;34788;-78
2023/09/16 00:47:40;;;;;;;1.10;0.68;;;;;;;20.72;54.40;99965.16;4474796;32;33758;-78
2023/09/16 00:50:13;;;;;;;1.12;0.65;;;;;;;20.84;54.36;99963.66;4472409;32;33755;-80
2023/09/16 00:52:46;;;;;;;1.15;0.90;;;;;;;20.74;54.55;99960.66;4459840;32;33568;-78
2023/09/16 00:55:15;;;;;;;1.37;0.77;;;;;;;20.74;54.78;99959.81;4464911;32;34396;-79
2023/09/16 00:57:47;;;;;;;2.50;0.88;;;;;;;20.70;54.90;99964.38;4459720;32;34567;-79
2023/09/16 01:00:16;;;;;;;0.73;0.55;;;;;;;20.78;54.88;99962.22;4465661;32;33552;-79
2023/09/16 01:02:45;;;;;;;2.10;0.85;;;;;;;21.00;54.24;99969.87;4468669;32;33644;-78
2023/09/16 01:05:15;;;;;;;0.50;0.50;;;;;;;21.05;54.33;99969.63;4471017;32;33778;-79
2023/09/16 01:07:46;;;;;;;0.77;0.53;;;;;;;20.79;55.00;99965.69;4460717;32;34008;-78
2023/09/16 01:10:18;;;;;;;1.37;0.85;;;;;;;20.83;54.91;99968.09;4470611;32;34244;-80
2023/09/16 01:12:47;;;;;;;1.83;1.00;;;;;;;20.94;54.92;99969.31;4464897;32;33964;-79
2023/09/16 01:15:18;;;;;;;1.23;0.60;;;;;;;20.81;55.19;99963.84;4473574;32;33684;-79
2023/09/16 01:17:52;;;;;;;0.93;0.73;;;;;;;20.86;54.98;99967.09;4468887;32;33675;-78
2023/09/16 01:20:22;;;;;;;1.02;0.50;;;;;;;21.04;54.34;99965.28;4476107;32;33367;-79
2023/09/16 01:22:53;;;;;;;1.08;0.80;;;;;;;21.04;54.59;99970.53;4470709;32;35168;-78
2023/09/16 01:25:27;;;;;;;1.65;1.00;;;;;;;21.00;54.85;99966.38;4467990;32;34692;-80
2023/09/16 01:27:57;;;;;;;0.70;0.62;;;;;;;20.92;55.21;99961.47;4465147;32;33849;-78
2023/09/16 01:30:27;;;;;;;1.15;0.52;;;;;;;20.89;55.38;99962.50;4476956;32;34020;-78
2023/09/16 01:33:00;;;;;;;0.90;0.70;;;;;;;20.95;55.31;99960.47;4474648;32;33677;-79
2023/09/16 01:35:31;;;;;;;1.20;0.62;;;;;;;20.91;55.38;99965.06;4465399;32;33765;-78
2023/09/16 01:38:00;;;;;;;0.95;0.50;;;;;;;21.05;55.15;99965.19;4474505;32;33824;-78
2023/09/16 01:40:31;;;;;;;0.82;0.60;;;;;;;21.12;54.89;99960.47;4482662;32;33583;-78
2023/09/16 01:43:02;;;;;;;0.50;0.40;;;;;;;21.13;55.03;99967.44;4477214;32;33777;-78
2023/09/16 01:45:39;;;;;;;;;;;;;;;21.02;54.99;99964.50;4471047;32;34667;-79
2023/09/16 01:48:08;;;;;;;0.43;0.37;;;;;;;21.05;54.94;99961.72;4477173;32;34642;-78
2023/09/16 01:50:37;;;;;;;0.88;0.70;;;;;;;21.02;55.51;99965.38;4476716;31;34215;-79
2023/09/16 01:53:07;;;;;;;3.03;1.00;;;;;;;21.00;55.85;99961.09;4471299;32;33491;-80
2023/09/16 01:55:39;;;;;;;0.77;0.60;;;;;;;20.98;55.92;99968.25;4477348;32;34701;-80
2023/09/16 01:58:08;;;;;;;1.48;0.52;;;;;;;20.89;56.08;99965.13;4472885;32;35827;-79
2023/09/16 02:00:37;;;;;;;1.10;0.47;;;;;;;20.99;55.77;99964.66;4470234;32;33556;-79
2023/09/16 02:03:06;;;;;;;0.90;0.65;;;;;;;21.09;55.84;99971.16;4467563;32;34608;-79
2023/09/16 02:05:35;;;;;;;0.85;0.60;;;;;;;20.79;57.08;99969.19;4461423;32;33681;-78
2023/09/16 02:08:04;;;;;;;0.93;0.57;;;;;;;20.91;56.86;99970.34;4460363;32;34438;-79
2023/09/16 02:10:33;;;;;;;1.00;0.60;;;;;;;21.05;56.32;99974.91;4469749;32;33295;-79
2023/09/16 02:13:04;;;;;;;1.85;0.95;;;;;;;21.22;55.75;99971.37;4471783;32;33872;-79
2023/09/16 02:15:35;;;;;;;0.88;0.45;;;;;;;21.07;56.02;99979.16;4469674;32;34016;-78
2023/09/16 02:18:04;;;;;;;;;;;;;;;21.08;55.95;99977.38;4468898;32;34062;-78
2023/09/16 02:20:32;;;;;;;1.42;0.70;;;;;;;21.25;55.75;99974.69;4463350;32;33149;-78
2023/09/16 02:23:03;;;;;;;1.25;0.65;;;;;;;21.15;55.97;99970.84;4467810;32;34460;-80
2023/09/16 02:25:33;;;;;;;0.93;0.68;;;;;;;21.23;55.93;99970.44;4472992;32;33547;-79
2023/09/16 02:28:04;;;;;;;0.90;0.60;;;;;;;21.13;56.21;99966.59;4465826;32;34432;-80
2023/09/16 02:30:33;;;;;;;1.10;0.80;;;;;;;21.07;56.50;99965.13;4472120;32;33611;-78
2023/09/16 02:33:02;;;;;;;1.08;0.70;;;;;;;21.11;56.71;99961.38;4465855;32;33469;-79
2023/09/16 02:35:31;;;;;;;2.22;0.93;;;;;;;20.99;56.94;99962.87;4463213;32;34712;-79
2023/09/16 02:38:02;;;;;;;0.93;0.60;;;;;;;21.06;56.06;99963.41;4466045;32;33788;-79
2023/09/16 02:40:32;;;;;;;4.37;0.62;;;;;;;20.97;56.23;99967.41;4473918;32;34175;-79
2023/09/16 02:43:01;;;;;;;1.10;0.60;;;;;;;20.95;56.36;99968.38;4464266;32;34611;-78
2023/09/16 02:45:31;;;;;;;1.05;0.65;;;;;;;21.14;56.05;99961.22;4470602;32;33869;-78
2023/09/16 02:48:00;;;;;;;1.83;0.90;;;;;;;20.96;56.44;99968.31;4470161;32;34430;-79
2023/09/16 02:50:29;;;;;;;6.07;1.60;;;;;;;20.98;56.44;99962.97;4460946;32;34416;-78
2023/09/16 02:52:58;;;;;;;1.05;0.60;;;;;;;20.99;56.70;99968.16;4460386;32;33931;-79
2023/09/16 02:55:28;;;;;;;1.23;0.60;;;;;;;20.95;56.93;99963.09;4470014;32;33824;-80
2023/09/16 02:57:57;;;;;;;2.30;0.95;;;;;;;20.98;56.81;99962.97;4461955;32;34380;-79
2023/09/16 03:00:26;;;;;;;3.30;1.10;;;;;;;21.06;56.87;99966.06;4468816;32;33259;-79
2023/09/16 03:02:57;;;;;;;1.15;0.60;;;;;;;21.03;56.93;99968.84;4471555;32;33260;-79
2023/09/16 03:05:26;;;;;;;1.92;0.93;;;;;;;20.96;57.23;99959.56;4461006;32;34876;-79
2023/09/16 03:07:55;;;;;;;2.10;0.88;;;;;;;21.00;56.94;99961.09;4468322;32;34772;-79
2023/09/16 03:10:24;;;;;;;1.90;0.88;;;;;;;20.99;56.47;99960.22;4467662;32;34185;-79
2023/09/16 03:12:53;;;;;;;3.78;0.70;;;;;;;20.93;56.61;99957.94;4465321;32;33390;-80
2023/09/16 03:15:22;;;;;;;1.55;0.65;;;;;;;20.86;56.67;99960.03;4476651;32;33765;-78
2023/09/16 03:17:52;;;;;;;0.62;0.50;;;;;;;20.99;56.17;99965.50;4466133;32;34811;-78
2023/09/16 03:20:38;;;;;;;0.82;0.57;;;;;;;21.02;55.89;99964.50;4462294;32;34363;-79
2023/09/16 03:23:08;;;;;;;0.93;0.57;;;;;;;21.13;55.61;99967.44;4466578;32;35490;-79
2023/09/16 03:25:37;;;;;;;1.00;0.73;;;;;;;21.13;55.30;99964.78;4468190;32;33599;-79
2023/09/16 03:28:06;;;;;;;1.17;0.70;;;;;;;20.92;56.31;99968.53;4476538;32;33869;-80
2023/09/16 03:30:36;;;;;;;1.83;0.82;;;;;;;20.89;56.19;99967.75;4472297;32;33258;-79
2023/09/16 03:33:05;;;;;;;2.33;1.02;;;;;;;20.95;56.20;99968.38;4480202;32;34516;-78
2023/09/16 03:35:34;;;;;;;0.80;0.62;;;;;;;20.89;56.27;99973.03;4475963;32;33717;-79
2023/09/16 03:38:05;;;;;;;1.40;0.75;;;;;;;20.82;56.37;99978.72;4465104;32;34109;-79
2023/09/16 03:40:35;;;;;;;2.45;0.70;;;;;;;20.97;56.08;99979.72;4460876;32;33015;-79
2023/09/16 03:43:05;;;;;;;1.65;0.75;;;;;;;20.92;56.33;99974.66;4465887;32;33779;-78
2023/09/16 03:45:34;;;;;;;1.08;0.73;;;;;;;20.85;56.82;99970.63;4469976;32;34641;-78
2023/09/16 03:48:04;;;;;;;1.98;1.33;;;;;;;20.95;56.62;99969.25;4461467;32;33925;-79
2023/09/16 03:50:33;;;;;;;1.17;0.57;;;;;;;21.12;55.51;99964.88;4460565;32;33489;-78
2023/09/16 03:53:02;;;;;;;1.87;0.70;;;;;;;21.03;56.05;99963.56;4467173;32;33568;-80
2023/09/16 03:55:41;;;;;;;1.40;0.80;;;;;;;20.96;56.49;99965.69;4469014;32;33853;-79
2023/09/16 03:58:10;;;;;;;1.10;0.62;;;;;;;20.79;56.86;99968.34;4463737;32;34578;-77
2023/09/16 04:00:39;;;;;;;0.75;0.68;;;;;;;20.76;57.09;99964.06;4471248;32;33842;-79
2023/09/16 04:03:08;;;;;;;1.42;0.70;;;;;;;20.77;57.18;99970.19;4468741;32;34160;-78
2023/09/16 04:05:37;;;;;;;1.25;0.80;;;;;;;20.97;56.46;99969.16;4459805;32;33551;-80
2023/09/16 04:08:05;;;;;;;0.70;0.60;;;;;;;20.87;57.00;99964.34;4470247;32;33861;-79
2023/09/16 04:10:34;;;;;;;1.08;0.77;;;;;;;20.69;57.32;99962.69;4468558;32;34403;-78
2023/09/16 04:13:04;;;;;;;0.62;0.50;;;;;;;20.79;56.48;99965.69;4474014;32;33484;-80
2023/09/16 04:15:33;;;;;;;2.17;0.77;;;;;;;20.73;56.93;99964.22;4474777;32;34106;-78
2023/09/16 04:18:02;;;;;;;1.90;0.68;;;;;;;20.65;57.26;99959.31;4468144;32;33769;-80
2023/09/16 04:20:31;;;;;;;1.62;0.82;;;;;;;20.76;57.10;99966.72;4462137;32;34489;-79
2023/09/16 04:23:00;;;;;;;1.62;0.80;;;;;;;20.67;57.81;99965.38;4459123;32;32909;-79
2023/09/16 04:25:29;;;;;;;0.80;0.60;;;;;;;20.73;57.51;99972.16;4467748;32;34385;-80
2023/09/16 04:27:58;;;;;;;0.62;0.60;;;;;;;20.72;57.32;99973.06;4464170;32;33859;-79
2023/09/16 04:30:28;;;;;;;0.73;0.70;;;;;;;20.72;57.11;99973.06;4475910;32;33198;-79
2023/09/16 04:32:57;;;;;;;0.77;0.60;;;;;;;20.76;56.83;99976.41;4463314;32;33093;-80
2023/09/16 04:35:26;;;;;;;1.20;0.70;;;;;;;20.71;56.72;99978.41;4459631;32;34505;-78
2023/09/16 04:37:55;;;;;;;0.77;0.68;;;;;;;20.61;56.80;99981.53;4462356;32;33683;-78
2023/09/16 04:40:24;;;;;;;0.68;0.60;;;;;;;20.89;55.84;99980.94;4467111;32;33640;-78
2023/09/16 04:42:53;;;;;;;1.42;0.85;;;;;;;20.73;56.15;99985.31;4476570;32;33456;-80
2023/09/16 04:45:23;;;;;;;1.50;0.80;;;;;;;20.59;56.62;99982.53;4469606;32;33832;-78
2023/09/16 04:47:53;;;;;;;3.50;1.12;;;;;;;20.71;55.92;99976.63;4477054;32;33670;-80
2023/09/16 04:50:22;;;;;;;1.27;0.80;;;;;;;20.79;55.60;99981.50;4482576;32;33202;-79
2023/09/16 04:52:52;;;;;;;0.80;0.60;;;;;;;20.69;55.83;99985.56;4463557;32;33469;-78
2023/09/16 04:55:21;;;;;;;0.73;0.43;;;;;;;20.68;55.87;99984.69;4469883;32;34674;-79
2023/09/16 04:57:50;;;;;;;0.68;0.55;;;;;;;20.79;55.82;99981.50;4477799;32;33939;-79
2023/09/16 05:00:20;;;;;;;0.80;0.70;;;;;;;20.91;55.06;99988.81;4476351;32;33400;-78
2023/09/16 05:02:50;;;;;;;0.85;0.47;;;;;;;20.86;54.98;99988.19;4467591;32;34264;-80
2023/09/16 05:05:21;;;;;;;0.70;0.50;;;;;;;20.74;55.34;99989.66;4476739;32;34817;-80
2023/09/16 05:07:49;;;;;;;1.17;0.93;;;;;;;20.83;55.33;99986.56;4476792;32;34727;-80
2023/09/16 05:10:19;;;;;;;0.47;0.47;;;;;;;20.81;55.57;99988.41;4469707;32;33088;-78
2023/09/16 05:12:48;;;;;;;1.10;0.70;;;;;;;20.95;55.25;99987.72;4471116;32;33407;-79
2023/09/16 05:15:17;;;;;;;2.90;0.90;;;;;;;20.75;55.50;99991.34;4468505;32;33628;-78
2023/09/16 05:17:46;;;;;;;0.50;0.50;;;;;;;20.81;55.67;99984.94;4467451;32;33601;-79
2023/09/16 05:20:15;;;;;;;0.50;0.45;;;;;;;20.68;56.22;99989.94;4461292;32;34023;-78
2023/09/16 05:22:47;;;;;;;1.80;0.98;;;;;;;20.89;54.86;99988.88;4463910;32;33985;-79
2023/09/16 05:25:17;;;;;;;0.80;0.80;;;;;;;20.98;54.70;99989.34;4466225;32;34487;-78
2023/09/16 05:27:47;;;;;;;1.10;0.82;;;;;;;21.12;54.48;99991.25;4460110;32;33889;-79
2023/09/16 05:30:16;;;;;;;0.90;0.50;;;;;;;21.28;53.94;99995.63;4459469;32;33463;-79
2023/09/16 05:32:46;;;;;;;0.65;0.57;;;;;;;21.35;53.71;99993.53;4465063;32;33432;-78
2023/09/16 05:35:14;;;;;;;0.52;0.50;;;;;;;21.26;54.10;100001.94;4465187;32;33739;-78
2023/09/16 05:37:43;;;;;;;0.65;0.50;;;;;;;21.27;54.45;99995.75;4462780;32;34194;-78
2023/09/16 05:40:15;;;;;;;1.17;0.70;;;;;;;21.26;54.39;99997.53;4459824;32;33848;-78
2023/09/16 05:42:46;;;;;;;0.73;0.60;;;;;;;21.32;54.27;99999.00;4461792;32;32932;-79
2023/09/16 05:45:16;;;;;;;2.17;0.60;;;;;;;21.36;54.21;99991.75;4468477;32;34587;-79
2023/09/16 05:47:48;;;;;;;0.70;0.45;;;;;;;21.05;55.21;99990.72;4476904;32;35388;-78
2023/09/16 05:50:18;;;;;;;3.03;0.82;;;;;;;21.14;54.72;99990.22;4466181;32;33645;-78
2023/09/16 05:52:47;;;;;;;0.82;0.50;;;;;;;20.91;55.83;99993.22;4463751;32;33646;-79
2023/09/16 05:55:17;;;;;;;2.15;0.95;;;;;;;21.14;54.89;99997.28;4462198;32;34620;-78
2023/09/16 05:57:47;;;;;;;0.50;0.50;;;;;;;21.40;54.03;99995.97;4468429;32;34117;-80
2023/09/16 06:00:16;;;;;;;1.35;0.62;;;;;;;21.30;54.33;99995.56;4462930;32;33188;-78
2023/09/16 06:02:45;;;;;;;0.52;0.52;;;;;;;21.23;54.07;99995.03;4465799;32;33761;-78
2023/09/16 06:05:14;;;;;;;0.70;0.50;;;;;;;21.06;54.85;99993.28;4465655;32;33645;-78
2023/09/16 06:07:43;;;;;;;2.08;0.95;;;;;;;21.08;54.77;99993.22;4462709;32;33659;-79
2023/09/16 06:10:12;;;;;;;0.37;0.37;;;;;;;21.27;54.97;100001.88;4473073;32;32977;-81
2023/09/16 06:12:46;;;;;;;1.08;0.60;;;;;;;20.92;55.79;100003.69;4460381;32;33715;-81
2023/09/16 06:15:15;;;;;;;1.08;0.70;;;;;;;21.32;54.92;99999.00;4471417;32;34072;-81
2023/09/16 06:17:44;;;;;;;1.52;0.80;;;;;;;21.76;53.29;100000.22;4470543;32;33766;-82
2023/09/16 06:20:13;;;;;;;1.55;0.75;;;;;;;21.69;53.39;100005.81;4469727;32;33093;-82
2023/09/16 06:22:42;;;;;;;0.85;0.60;;;;;;;21.38;54.28;100003.06;4462567;32;33186;-81
2023/09/16 06:25:13;;;;;;;0.93;0.50;;;;;;;21.70;52.57;99994.34;4462540;32;34080;-80
2023/09/16 06:27:44;;;;;;;0.62;0.62;;;;;;;21.82;52.57;99989.28;4462101;32;34581;-81
2023/09/16 06:30:14;;;;;;;0.97;0.70;;;;;;;21.49;53.44;99992.84;4466809;32;32775;-82
2023/09/16 06:32:43;;;;;;;0.77;0.57;;;;;;;21.64;53.28;99992.00;4477410;32;33967;-81
2023/09/16 06:35:12;;;;;;;1.90;0.88;;;;;;;21.93;52.21;99993.06;4461143;32;34462;-80
2023/09/16 06:37:41;;;;;;;0.57;0.50;;;;;;;21.81;52.28;99991.09;4461909;32;34562;-80
2023/09/16 06:40:12;;;;;;;1.20;0.75;;;;;;;21.87;52.13;99995.19;4465211;32;33598;-81
2023/09/16 06:42:41;;;;;;;0.62;0.60;;;;;;;21.89;51.84;99994.19;4468720;32;33271;-81
2023/09/16 06:45:12;;;;;;;0.77;0.60;;;;;;;22.02;51.62;99994.34;4469476;32;33949;-80
2023/09/16 06:47:41;;;;;;;0.57;0.57;;;;;;;22.08;51.93;99999.25;4475398;32;34443;-81
2023/09/16 06:50:10;;;;;;;0.62;0.57;;;;;;;22.30;51.15;99995.44;4470999;32;33305;-82
2023/09/16 06:52:39;;;;;;;1.48;0.73;;;;;;;21.92;52.62;99996.62;4480974;32;33625;-81
2023/09/16 06:55:09;;;;;;;1.52;0.77;;;;;;;22.42;51.12;99993.91;4477133;32;33751;-82
2023/09/16 06:57:38;;;;;;;0.93;0.62;;;;;;;22.14;52.14;99998.09;4468465;32;33992;-81
2023/09/16 07:00:08;;;;;;;1.35;0.70;;;;;;;22.30;51.54;100003.37;4465593;32;33650;-81
2023/09/16 07:02:38;;;;;;;1.73;0.73;;;;;;;22.45;51.48;99993.75;4469622;32;33864;-81
2023/09/16 07:05:07;;;;;;;0.40;0.40;;;;;;;22.68;51.20;100000.31;4474421;32;33594;-82
2023/09/16 07:07:37;;;;;;;0.60;0.32;;;;;;;22.78;50.62;100009.41;4459413;32;33778;-81
2023/09/16 07:10:06;;;;;;;1.30;0.80;;;;;;;22.54;50.58;100003.75;4460740;32;34082;-81
2023/09/16 07:12:35;;;;;;;0.82;0.52;;;;;;;22.66;49.78;100007.50;4458200;32;33664;-80
2023/09/16 07:15:04;;;;;;;1.62;0.62;;;;;;;22.40;50.35;100012.50;4473323;32;34510;-80
2023/09/16 07:17:34;;;;;;;0.98;0.75;;;;;;;22.50;50.28;100008.38;4467743;32;35587;-80
2023/09/16 07:20:10;;;;;;;1.98;0.70;;;;;;;22.82;49.34;100010.09;4462916;32;33426;-80
2023/09/16 07:22:39;;;;;;;1.20;0.80;;;;;;;22.50;49.62;100005.75;4458865;32;33941;-81
2023/09/16 07:25:08;;;;;;;0.95;0.60;;;;;;;22.52;49.79;100011.81;4463129;32;33648;-81
2023/09/16 07:27:37;;;;;;;0.82;0.50;;;;;;;22.59;49.61;100009.63;4467470;32;33778;-80
2023/09/16 07:30:07;;;;;;;1.75;1.00;;;;;;;22.84;49.40;100014.34;4464635;32;34394;-80
2023/09/16 07:32:37;;;;;;;0.53;0.50;;;;;;;22.92;49.49;100006.81;4466291;32;34016;-81
2023/09/16 07:35:06;;;;;;;0.82;0.73;;;;;;;22.51;50.47;100007.44;4459992;32;34379;-80
2023/09/16 07:37:36;;;;;;;0.98;0.82;;;;;;;23.05;49.58;100009.63;4465131;32;33752;-80
2023/09/16 07:40:07;;;;;;;1.67;0.70;;;;;;;23.02;48.54;100006.31;4466351;32;32866;-81
2023/09/16 07:42:36;;;;;;;2.05;0.90;;;;;;;23.10;48.90;100023.44;4459853;32;203388;-81
2023/09/16 07:45:06;;;;;;;1.37;0.60;;;;;;;23.15;48.34;100012.56;4470899;32;34394;-81
2023/09/16 07:47:34;;;;;;;1.15;0.50;;;;;;;23.20;48.55;100016.63;4468522;32;34032;-81
2023/09/16 07:50:03;;;;;;;0.68;0.60;;;;;;;23.12;48.58;100004.78;4470182;32;34455;-81
2023/09/16 07:52:32;;;;;;;1.73;0.90;;;;;;;23.21;48.19;100013.03;4468699;32;33830;-81
2023/09/16 07:55:03;;;;;;;1.52;0.80;;;;;;;22.59;49.84;99999.06;4462526;32;34768;-80
2023/09/16 07:57:31;;;;;;;1.77;0.80;;;;;;;22.85;49.92;99994.88;4461446;32;33257;-81
2023/09/16 08:00:01;;;;;;;1.67;0.60;;;;;;;23.16;48.61;100001.03;4466960;32;34332;-81
2023/09/16 08:02:39;;;;;;;1.60;0.55;;;;;;;23.23;48.31;100001.53;4471000;32;33749;-81
2023/09/16 08:05:09;;;;;;;1.67;0.95;;;;;;;23.50;47.85;100006.91;4457875;32;34605;-80
2023/09/16 08:07:37;;;;;;;1.95;1.05;;;;;;;23.42;48.11;99997.66;4458465;32;33903;-79
2023/09/16 08:10:10;;;;;;;0.82;0.62;;;;;;;23.36;47.81;100005.94;4459564;32;33236;-80
2023/09/16 08:12:39;;;;;;;0.93;0.65;;;;;;;23.51;48.06;100003.31;4465423;32;34010;-80
2023/09/16 08:15:09;;;;;;;1.15;0.70;;;;;;;23.06;48.64;100006.03;4463446;32;34960;-78
2023/09/16 08:17:38;;;;;;;0.85;0.70;;;;;;;23.09;49.29;100000.53;4461061;32;33614;-78
2023/09/16 08:20:08;;;;;;;1.80;0.70;;;;;;;23.23;48.88;100009.47;4464006;32;33271;-78
2023/09/16 08:22:37;;;;;;;1.95;1.12;;;;;;;23.59;48.62;100009.00;4473138;32;32909;-79
2023/09/16 08:25:06;;;;;;;1.23;0.77;;;;;;;23.49;48.92;100013.16;4466615;32;33851;-78
2023/09/16 08:27:37;;;;;;;0.85;0.73;;;;;;;23.70;48.28;100009.16;4465843;32;33900;-79
2023/09/16 08:30:07;;;;;;;1.58;1.05;;;;;;;23.93;47.28;100017.50;4460471;32;33430;-80
2023/09/16 08:32:38;;;;;;;0.80;0.70;;;;;;;23.97;47.12;100014.56;4466359;32;33566;-80
2023/09/16 08:35:08;;;;;;;1.98;0.80;;;;;;;23.58;47.35;100015.22;4464927;32;34091;-80
2023/09/16 08:37:37;;;;;;;3.20;0.80;;;;;;;24.31;46.03;100014.16;4461924;32;33724;-81
2023/09/16 08:40:07;;;;;;;11.95;1.40;;;;;;;24.26;46.82;100015.34;4467165;32;33906;-80
2023/09/16 08:42:40;;;;;;;2.17;1.20;;;;;;;23.42;49.18;100012.69;4471495;32;33397;-82
2023/09/16 08:45:15;;;;;;;2.08;0.95;;;;;;;23.55;48.66;100010.13;4469085;32;34084;-80
2023/09/16 08:47:50;;;;;;;1.25;0.70;;;;;;;23.14;50.00;100010.84;4471713;32;34148;-79
2023/09/16 08:50:22;;;;;;;1.92;0.80;;;;;;;24.19;47.40;100014.03;4468297;32;34445;-78
2023/09/16 08:52:53;;;;;;;1.17;0.93;;;;;;;24.32;47.43;100006.13;4467267;32;33564;-79
2023/09/16 08:55:22;;;;;;;2.33;0.93;;;;;;;24.11;47.33;100018.12;4469064;32;32157;-79
2023/09/16 08:58:03;;;;;;;1.37;0.70;;;;;;;24.21;47.22;100020.09;4474104;32;34762;-78
2023/09/16 09:00:32;;;;;;;2.10;1.00;;;;;;;23.95;48.05;100018.25;4477661;32;33436;-78
2023/09/16 09:03:03;;;;;;;1.98;0.75;;;;;;;24.21;48.33;100017.44;4462169;32;34632;-79
2023/09/16 09:05:33;;;;;;;1.93;0.90;;;;;;;24.36;47.60;100020.91;4461824;32;34349;-79
2023/09/16 09:08:02;;;;;;;3.55;1.00;;;;;;;24.29;47.57;100014.28;4466539;32;34117;-78
2023/09/16 09:10:31;;;;;;;1.23;0.93;;;;;;;24.41;47.46;100016.13;4467610;32;32945;-78
2023/09/16 09:13:01;;;;;;;1.52;0.80;;;;;;;24.53;47.06;100008.38;4473317;32;33863;-79
2023/09/16 09:15:30;;;;;;;2.22;1.08;;;;;;;24.90;46.25;100006.75;4474048;32;33182;-78
2023/09/16 09:17:59;;;;;;;2.20;0.90;;;;;;;24.59;47.16;100002.63;4462402;32;33861;-78
2023/09/16 09:20:29;;;;;;;2.30;0.95;;;;;;;25.05;45.94;99996.88;4471076;32;33416;-79
2023/09/16 09:22:59;;;;;;;0.87;0.70;;;;;;;24.77;46.35;100011.19;4468302;32;33781;-79
2023/09/16 09:25:29;;;;;;;1.08;0.68;;;;;;;24.73;47.19;100015.00;4463717;32;34062;-79
2023/09/16 09:27:58;;;;;;;3.15;1.15;;;;;;;24.79;47.18;100004.81;4468553;32;34482;-78
2023/09/16 09:30:28;;;;;;;1.15;0.65;;;;;;;24.84;47.07;99999.19;4462170;32;33144;-78
2023/09/16 09:32:57;;;;;;;1.73;1.00;;;;;;;24.62;48.05;99999.78;4470358;32;34687;-79
2023/09/16 09:35:30;;;;;;;1.17;0.75;;;;;;;24.31;49.03;99999.13;4461635;32;33595;-78
2023/09/16 09:37:59;;;;;;;3.05;1.10;;;;;;;24.88;47.62;100000.69;4476630;32;34205;-78
2023/09/16 09:40:29;;;;;;;3.15;0.90;;;;;;;24.43;48.29;100000.97;4473248;32;33914;-78
2023/09/16 09:42:57;;;;;;;1.73;0.93;;;;;;;24.26;48.85;100009.19;4468103;32;34763;-78
2023/09/16 09:45:29;;;;;;;1.80;0.93;;;;;;;24.77;47.69;99998.78;4471711;32;33944;-78
2023/09/16 09:47:58;;;;;;;2.33;1.20;;;;;;;24.60;48.33;100002.56;4464209;32;34133;-78
2023/09/16 09:50:30;;;;;;;0.95;0.77;;;;;;;24.88;47.39;99998.88;4466733;32;33735;-79
2023/09/16 09:53:05;;;;;;;1.95;0.85;;;;;;;24.62;47.54;100005.97;4472994;32;33612;-79
2023/09/16 09:55:34;;;;;;;1.50;0.93;;;;;;;24.82;47.93;100009.06;4483049;32;33535;-79
2023/09/16 09:58:03;;;;;;;1.92;0.82;;;;;;;25.26;46.74;99998.09;4464241;32;33671;-79
2023/09/16 10:00:33;;;;;;;1.27;0.80;;;;;;;24.77;47.62;100000.56;4459688;31;33100;-78
2023/09/16 10:03:02;;;;;;;1.37;0.82;;;;;;;24.88;46.59;99988.25;4459401;32;33480;-78
2023/09/16 10:05:36;;;;;;;0.90;0.60;;;;;;;25.21;46.01;99994.91;4469544;32;33497;-79
2023/09/16 10:08:05;;;;;;;0.88;0.55;;;;;;;25.11;46.87;99986.69;4469231;32;34269;-78
2023/09/16 10:10:35;;;;;;;0.93;0.57;;;;;;;25.27;46.22;99989.19;4472524;32;34308;-78
2023/09/16 10:13:04;;;;;;;2.05;0.90;;;;;;;24.97;46.86;99986.78;4471086;32;34489;-78
2023/09/16 10:15:37;;;;;;;2.42;1.10;;;;;;;25.22;46.56;99985.13;4468650;32;35058;-80
2023/09/16 10:18:07;;;;;;;2.45;0.90;;;;;;;24.84;47.53;99989.44;4479225;32;34697;-79
2023/09/16 10:20:38;;;;;;;3.37;0.80;;;;;;;24.98;47.29;99983.16;4466269;31;33098;-79
2023/09/16 10:23:07;;;;;;;1.52;0.62;;;;;;;25.40;46.38;99978.53;4461553;32;34632;-79
2023/09/16 10:25:36;;;;;;;1.50;0.70;;;;;;;25.13;46.40;99978.63;4461433;32;34655;-78
2023/09/16 10:28:09;;;;;;;2.75;1.17;;;;;;;25.60;45.33;99982.44;4461549;32;33992;-79
2023/09/16 10:30:39;;;;;;;0.93;0.73;;;;;;;25.61;45.99;99981.47;4466969;32;34187;-79
2023/09/16 10:33:10;;;;;;;1.00;0.75;;;;;;;25.11;46.81;99973.41;4475560;32;33082;-78
2023/09/16 10:35:41;;;;;;;1.02;0.70;;;;;;;25.00;47.23;99985.72;4477572;32;34303;-78
2023/09/16 10:38:12;;;;;;;1.85;0.85;;;;;;;25.39;46.07;99974.16;4477193;32;33816;-79
2023/09/16 10:40:43;;;;;;;1.50;0.80;;;;;;;25.40;46.26;99975.03;4482408;32;33359;-80
2023/09/16 10:43:13;;;;;;;1.45;0.82;;;;;;;25.63;46.31;99978.72;4476968;32;33296;-78
2023/09/16 10:45:43;;;;;;;;;;;;;;;25.58;46.24;99978.19;4477051;32;34645;-78
2023/09/16 10:48:15;;;;;;;1.67;0.90;;;;;;;25.55;46.53;99981.91;4477141;32;34333;-79
2023/09/16 10:50:44;;;;;;;1.77;0.95;;;;;;;26.16;44.66;99980.16;4476697;32;33802;-79
2023/09/16 10:53:19;;;;;;;1.37;0.88;;;;;;;25.42;46.44;99978.41;4482627;32;33823;-78
2023/09/16 10:55:53;;;;;;;1.52;0.80;;;;;;;26.23;44.88;99975.25;4477036;32;34119;-80
2023/09/16 10:58:27;;;;;;;1.40;0.80;;;;;;;26.43;44.85;99965.78;4476959;32;33725;-78
2023/09/16 11:00:59;;;;;;;2.05;0.90;;;;;;;26.77;44.35;99972.13;4477094;32;33647;-78
2023/09/16 11:03:29;;;;;;;1.27;0.73;;;;;;;26.86;43.72;99967.88;4478313;32;33526;-78
2023/09/16 11:05:59;;;;;;;1.73;0.98;;;;;;;26.73;44.21;99960.00;4482283;32;34323;-78
2023/09/16 11:08:28;;;;;;;1.27;0.80;;;;;;;26.73;44.20;99964.47;4477012;32;34773;-78
2023/09/16 11:10:58;;;;;;;2.15;0.90;;;;;;;26.74;44.08;99963.50;4474656;32;33034;-78
2023/09/16 11:13:29;;;;;;;1.27;0.70;;;;;;;26.63;43.69;99963.47;4474283;32;34428;-79
2023/09/16 11:15:59;;;;;;;;;;;;;;;26.47;44.64;99964.59;4479927;32;33897;-78
2023/09/16 11:18:30;;;;;;;2.28;1.10;;;;;;;26.69;43.59;99963.00;4474264;32;34172;-80
2023/09/16 11:20:58;;;;;;;2.83;0.77;;;;;;;26.82;43.53;99958.47;4476736;32;33235;-79
2023/09/16 11:23:28;;;;;;;2.37;1.10;;;;;;;26.87;43.57;99947.44;4474709;32;33626;-79
2023/09/16 11:25:58;;;;;;;2.75;0.77;;;;;;;26.28;44.56;99943.84;4479777;32;34473;-79
2023/09/16 11:28:29;;;;;;;2.12;1.08;;;;;;;26.37;44.64;99944.97;4478262;32;34504;-78
2023/09/16 11:31:01;;;;;;;2.20;0.95;;;;;;;26.61;43.88;99939.66;4462192;32;33578;-79
2023/09/16 11:33:33;;;;;;;1.75;0.98;;;;;;;26.50;44.87;99939.56;4461236;32;33629;-78
2023/09/16 11:36:13;;;;;;;1.77;1.00;;;;;;;26.78;44.32;99939.19;4461832;32;33075;-78
2023/09/16 11:38:54;;;;;;;1.70;1.10;;;;;;;26.93;43.61;99938.97;4465900;32;33775;-78
2023/09/16 11:41:24;;;;;;;1.70;0.95;;;;;;;26.68;44.17;99940.87;4468917;32;33317;-79
2023/09/16 11:43:54;;;;;;;6.78;1.80;;;;;;;26.69;44.14;99939.91;4463122;32;33261;-78